sensor_id;sensor_type;location;lat;lon;timestamp;temperature;humidity
46416;DHT22;32620;51.704;7.822;2022-12-07T00:02:12;4.80;99.90
46416;DHT22;32620;51.704;7.822;2022-12-07T00:04:37;4.80;99.90
46416;DHT22;32620;51.704;7.822;2022-12-07T00:07:03;4.80;99.90
46416;DHT22;32620;51.704;7.822;2022-12-07T00:09:29;4.80;99.90
46416;DHT22;32620;51.704;7.822;2022-12-07T00:11:54;4.80;99.90
46416;DHT22;32620;51.704;7.822;2022-12-07T00:14:20;4.70;99.90
46416;DHT22;32620;51.704;7.822;2022-12-07T00:16:48;4.80;99.90
46416;DHT22;32620;51.704;7.822;2022-12-07T00:19:13;4.80;99.90
46416;DHT22;32620;51.704;7.822;2022-12-07T00:21:39;4.80;99.90
46416;DHT22;32620;51.704;7.822;2022-12-07T00:24:05;4.80;99.90
46416;DHT22;32620;51.704;7.822;2022-12-07T00:26:34;4.70;99.90
46416;DHT22;32620;51.704;7.822;2022-12-07T00:29:01;4.80;99.90
46416;DHT22;32620;51.704;7.822;2022-12-07T00:31:28;4.80;99.90
46416;DHT22;32620;51.704;7.822;2022-12-07T00:33:54;4.70;99.90
46416;DHT22;32620;51.704;7.822;2022-12-07T00:36:21;4.80;99.90
46416;DHT22;32620;51.704;7.822;2022-12-07T00:38:47;4.80;99.90
46416;DHT22;32620;51.704;7.822;2022-12-07T00:41:14;4.80;99.90
46416;DHT22;32620;51.704;7.822;2022-12-07T00:43:40;4.80;99.90
46416;DHT22;32620;51.704;7.822;2022-12-07T00:46:05;4.90;99.90
46416;DHT22;32620;51.704;7.822;2022-12-07T00:48:31;4.80;99.90
46416;DHT22;32620;51.704;7.822;2022-12-07T00:50:56;4.80;99.90
46416;DHT22;32620;51.704;7.822;2022-12-07T00:53:22;4.80;99.90
46416;DHT22;32620;51.704;7.822;2022-12-07T00:55:48;4.80;99.90
46416;DHT22;32620;51.704;7.822;2022-12-07T00:58:13;4.80;99.90
46416;DHT22;32620;51.704;7.822;2022-12-07T01:00:40;4.90;99.90
46416;DHT22;32620;51.704;7.822;2022-12-07T01:03:06;4.90;99.90
46416;DHT22;32620;51.704;7.822;2022-12-07T01:05:32;4.80;99.90
46416;DHT22;32620;51.704;7.822;2022-12-07T01:07:57;4.90;99.90
46416;DHT22;32620;51.704;7.822;2022-12-07T01:10:23;4.90;99.90
46416;DHT22;32620;51.704;7.822;2022-12-07T01:12:48;4.90;99.90
46416;DHT22;32620;51.704;7.822;2022-12-07T01:15:14;4.90;99.90
46416;DHT22;32620;51.704;7.822;2022-12-07T01:17:39;4.90;99.90
46416;DHT22;32620;51.704;7.822;2022-12-07T01:20:05;4.90;99.90
46416;DHT22;32620;51.704;7.822;2022-12-07T01:22:31;4.90;99.90
46416;DHT22;32620;51.704;7.822;2022-12-07T01:24:56;4.90;99.90
46416;DHT22;32620;51.704;7.822;2022-12-07T01:27:22;4.80;99.90
46416;DHT22;32620;51.704;7.822;2022-12-07T01:29:47;4.90;99.90
46416;DHT22;32620;51.704;7.822;2022-12-07T01:32:13;4.90;99.90
46416;DHT22;32620;51.704;7.822;2022-12-07T01:34:38;4.90;99.90
46416;DHT22;32620;51.704;7.822;2022-12-07T01:37:04;4.90;99.90
46416;DHT22;32620;51.704;7.822;2022-12-07T01:39:29;4.90;99.90
46416;DHT22;32620;51.704;7.822;2022-12-07T01:41:55;4.90;99.90
46416;DHT22;32620;51.704;7.822;2022-12-07T01:47:02;4.80;99.90
46416;DHT22;32620;51.704;7.822;2022-12-07T01:49:29;4.80;99.90
46416;DHT22;32620;51.704;7.822;2022-12-07T01:51:58;4.80;99.90
46416;DHT22;32620;51.704;7.822;2022-12-07T01:54:25;4.80;99.90
46416;DHT22;32620;51.704;7.822;2022-12-07T01:56:51;4.80;99.90
46416;DHT22;32620;51.704;7.822;2022-12-07T01:59:18;4.80;99.90
46416;DHT22;32620;51.704;7.822;2022-12-07T02:01:44;4.80;99.90
46416;DHT22;32620;51.704;7.822;2022-12-07T02:04:10;4.80;99.90
46416;DHT22;32620;51.704;7.822;2022-12-07T02:06:36;4.80;99.90
46416;DHT22;32620;51.704;7.822;2022-12-07T02:09:02;4.80;99.90
46416;DHT22;32620;51.704;7.822;2022-12-07T02:11:27;4.80;99.90
46416;DHT22;32620;51.704;7.822;2022-12-07T02:13:53;4.70;99.90
46416;DHT22;32620;51.704;7.822;2022-12-07T02:22:34;4.70;99.90
46416;DHT22;32620;51.704;7.822;2022-12-07T02:24:42;4.70;99.90
46416;DHT22;32620;51.704;7.822;2022-12-07T02:27:44;4.70;99.90
46416;DHT22;32620;51.704;7.822;2022-12-07T02:30:12;4.70;99.90
46416;DHT22;32620;51.704;7.822;2022-12-07T02:35:27;4.70;99.90
46416;DHT22;32620;51.704;7.822;2022-12-07T02:38:03;4.70;99.90
46416;DHT22;32620;51.704;7.822;2022-12-07T02:40:42;4.70;99.90
46416;DHT22;32620;51.704;7.822;2022-12-07T02:43:14;4.70;99.90
46416;DHT22;32620;51.704;7.822;2022-12-07T02:45:42;4.70;99.90
46416;DHT22;32620;51.704;7.822;2022-12-07T02:48:09;4.60;99.90
46416;DHT22;32620;51.704;7.822;2022-12-07T02:50:35;4.60;99.90
46416;DHT22;32620;51.704;7.822;2022-12-07T02:53:01;4.60;99.90
46416;DHT22;32620;51.704;7.822;2022-12-07T02:55:28;4.50;99.90
46416;DHT22;32620;51.704;7.822;2022-12-07T02:58:30;4.50;99.90
46416;DHT22;32620;51.704;7.822;2022-12-07T03:00:44;4.40;99.90
46416;DHT22;32620;51.704;7.822;2022-12-07T03:03:12;4.30;99.90
46416;DHT22;32620;51.704;7.822;2022-12-07T03:05:43;4.20;99.90
46416;DHT22;32620;51.704;7.822;2022-12-07T03:08:15;4.10;99.90
46416;DHT22;32620;51.704;7.822;2022-12-07T03:10:48;4.10;99.90
46416;DHT22;32620;51.704;7.822;2022-12-07T03:13:34;4.20;99.90
46416;DHT22;32620;51.704;7.822;2022-12-07T03:16:08;4.10;99.90
46416;DHT22;32620;51.704;7.822;2022-12-07T03:18:37;4.10;99.90
46416;DHT22;32620;51.704;7.822;2022-12-07T03:21:05;3.90;99.90
46416;DHT22;32620;51.704;7.822;2022-12-07T03:23:32;3.90;99.90
46416;DHT22;32620;51.704;7.822;2022-12-07T03:25:59;3.80;99.90
46416;DHT22;32620;51.704;7.822;2022-12-07T03:28:26;3.70;99.90
46416;DHT22;32620;51.704;7.822;2022-12-07T03:30:56;3.70;99.90
46416;DHT22;32620;51.704;7.822;2022-12-07T03:33:23;3.70;99.90
46416;DHT22;32620;51.704;7.822;2022-12-07T03:35:51;3.60;99.90
46416;DHT22;32620;51.704;7.822;2022-12-07T03:38:23;3.50;99.90
46416;DHT22;32620;51.704;7.822;2022-12-07T03:40:52;3.50;99.90
46416;DHT22;32620;51.704;7.822;2022-12-07T03:43:20;3.50;99.90
46416;DHT22;32620;51.704;7.822;2022-12-07T03:45:53;3.50;99.90
46416;DHT22;32620;51.704;7.822;2022-12-07T03:48:24;3.40;99.90
46416;DHT22;32620;51.704;7.822;2022-12-07T03:50:52;3.30;99.90
46416;DHT22;32620;51.704;7.822;2022-12-07T03:53:20;3.30;99.90
46416;DHT22;32620;51.704;7.822;2022-12-07T03:55:47;3.30;99.90
46416;DHT22;32620;51.704;7.822;2022-12-07T03:58:16;3.20;99.90
46416;DHT22;32620;51.704;7.822;2022-12-07T04:00:43;3.30;99.90
46416;DHT22;32620;51.704;7.822;2022-12-07T04:03:09;3.30;99.90
46416;DHT22;32620;51.704;7.822;2022-12-07T04:05:34;3.30;99.90
46416;DHT22;32620;51.704;7.822;2022-12-07T04:08:00;3.30;99.90
46416;DHT22;32620;51.704;7.822;2022-12-07T04:10:25;3.30;99.90
46416;DHT22;32620;51.704;7.822;2022-12-07T04:12:51;3.30;99.90
46416;DHT22;32620;51.704;7.822;2022-12-07T04:15:16;3.30;99.90
46416;DHT22;32620;51.704;7.822;2022-12-07T04:17:42;3.30;99.90
46416;DHT22;32620;51.704;7.822;2022-12-07T04:20:07;3.30;99.90
46416;DHT22;32620;51.704;7.822;2022-12-07T04:22:33;3.20;99.90
46416;DHT22;32620;51.704;7.822;2022-12-07T04:24:59;3.30;99.90
46416;DHT22;32620;51.704;7.822;2022-12-07T04:27:24;3.20;99.90
46416;DHT22;32620;51.704;7.822;2022-12-07T04:29:49;3.20;99.90
46416;DHT22;32620;51.704;7.822;2022-12-07T04:32:15;3.20;99.90
46416;DHT22;32620;51.704;7.822;2022-12-07T04:34:40;3.20;99.90
46416;DHT22;32620;51.704;7.822;2022-12-07T04:37:06;3.10;99.90
46416;DHT22;32620;51.704;7.822;2022-12-07T04:39:32;3.10;99.90
46416;DHT22;32620;51.704;7.822;2022-12-07T04:41:57;3.10;99.90
46416;DHT22;32620;51.704;7.822;2022-12-07T04:44:23;3.10;99.90
46416;DHT22;32620;51.704;7.822;2022-12-07T04:46:49;3.10;99.90
46416;DHT22;32620;51.704;7.822;2022-12-07T04:49:15;3.00;99.90
46416;DHT22;32620;51.704;7.822;2022-12-07T04:51:41;3.00;99.90
46416;DHT22;32620;51.704;7.822;2022-12-07T04:54:07;3.00;99.90
46416;DHT22;32620;51.704;7.822;2022-12-07T04:56:32;3.00;99.90
46416;DHT22;32620;51.704;7.822;2022-12-07T04:59:00;3.00;99.90
46416;DHT22;32620;51.704;7.822;2022-12-07T05:01:25;2.90;99.90
46416;DHT22;32620;51.704;7.822;2022-12-07T05:03:51;2.90;99.90
46416;DHT22;32620;51.704;7.822;2022-12-07T05:06:16;2.90;99.90
46416;DHT22;32620;51.704;7.822;2022-12-07T05:08:42;2.80;99.90
46416;DHT22;32620;51.704;7.822;2022-12-07T05:11:08;2.80;99.90
46416;DHT22;32620;51.704;7.822;2022-12-07T05:13:34;2.90;99.90
46416;DHT22;32620;51.704;7.822;2022-12-07T05:16:00;2.80;99.90
46416;DHT22;32620;51.704;7.822;2022-12-07T05:18:26;2.90;99.90
46416;DHT22;32620;51.704;7.822;2022-12-07T05:20:51;2.80;99.90
46416;DHT22;32620;51.704;7.822;2022-12-07T05:23:17;2.80;99.90
46416;DHT22;32620;51.704;7.822;2022-12-07T05:25:43;2.80;99.90
46416;DHT22;32620;51.704;7.822;2022-12-07T05:28:09;2.80;99.90
46416;DHT22;32620;51.704;7.822;2022-12-07T05:30:34;2.90;99.90
46416;DHT22;32620;51.704;7.822;2022-12-07T05:33:00;3.00;99.90
46416;DHT22;32620;51.704;7.822;2022-12-07T05:35:25;3.00;99.90
46416;DHT22;32620;51.704;7.822;2022-12-07T05:37:51;3.00;99.90
46416;DHT22;32620;51.704;7.822;2022-12-07T05:40:16;2.90;99.90
46416;DHT22;32620;51.704;7.822;2022-12-07T05:42:42;2.90;99.90
46416;DHT22;32620;51.704;7.822;2022-12-07T05:45:09;2.90;99.90
46416;DHT22;32620;51.704;7.822;2022-12-07T05:47:34;2.90;99.90
46416;DHT22;32620;51.704;7.822;2022-12-07T05:50:00;2.90;99.90
46416;DHT22;32620;51.704;7.822;2022-12-07T05:52:26;2.90;99.90
46416;DHT22;32620;51.704;7.822;2022-12-07T05:54:51;3.00;99.90
46416;DHT22;32620;51.704;7.822;2022-12-07T05:57:17;3.00;99.90
46416;DHT22;32620;51.704;7.822;2022-12-07T05:59:43;3.00;99.90
46416;DHT22;32620;51.704;7.822;2022-12-07T06:02:10;3.00;99.90
46416;DHT22;32620;51.704;7.822;2022-12-07T06:04:36;3.00;99.90
46416;DHT22;32620;51.704;7.822;2022-12-07T06:07:03;3.00;99.90
46416;DHT22;32620;51.704;7.822;2022-12-07T06:09:29;3.10;99.90
46416;DHT22;32620;51.704;7.822;2022-12-07T06:11:55;3.20;99.90
46416;DHT22;32620;51.704;7.822;2022-12-07T06:14:41;3.20;99.90
46416;DHT22;32620;51.704;7.822;2022-12-07T06:17:06;3.20;99.90
46416;DHT22;32620;51.704;7.822;2022-12-07T06:19:32;3.20;99.90
46416;DHT22;32620;51.704;7.822;2022-12-07T06:21:57;3.20;99.90
46416;DHT22;32620;51.704;7.822;2022-12-07T06:24:23;3.20;99.90
46416;DHT22;32620;51.704;7.822;2022-12-07T06:26:48;3.20;99.90
46416;DHT22;32620;51.704;7.822;2022-12-07T06:29:14;3.30;99.90
46416;DHT22;32620;51.704;7.822;2022-12-07T06:31:40;3.30;99.90
46416;DHT22;32620;51.704;7.822;2022-12-07T06:34:09;3.30;99.90
46416;DHT22;32620;51.704;7.822;2022-12-07T06:36:35;3.30;99.90
46416;DHT22;32620;51.704;7.822;2022-12-07T06:39:00;3.30;99.90
46416;DHT22;32620;51.704;7.822;2022-12-07T06:41:26;3.30;99.90
46416;DHT22;32620;51.704;7.822;2022-12-07T06:43:51;3.30;99.90
46416;DHT22;32620;51.704;7.822;2022-12-07T06:46:17;3.20;99.90
46416;DHT22;32620;51.704;7.822;2022-12-07T06:48:42;3.20;99.90
46416;DHT22;32620;51.704;7.822;2022-12-07T06:51:08;3.20;99.90
46416;DHT22;32620;51.704;7.822;2022-12-07T06:53:34;3.20;99.90
46416;DHT22;32620;51.704;7.822;2022-12-07T06:56:00;3.30;99.90
46416;DHT22;32620;51.704;7.822;2022-12-07T06:58:25;3.30;99.90
46416;DHT22;32620;51.704;7.822;2022-12-07T07:00:50;3.20;99.90
46416;DHT22;32620;51.704;7.822;2022-12-07T07:03:16;3.20;99.90
46416;DHT22;32620;51.704;7.822;2022-12-07T07:05:42;3.10;99.90
46416;DHT22;32620;51.704;7.822;2022-12-07T07:08:08;3.00;99.90
46416;DHT22;32620;51.704;7.822;2022-12-07T07:10:33;3.00;99.90
46416;DHT22;32620;51.704;7.822;2022-12-07T07:12:59;3.00;99.90
46416;DHT22;32620;51.704;7.822;2022-12-07T07:15:24;3.00;99.90
46416;DHT22;32620;51.704;7.822;2022-12-07T07:17:50;3.00;99.90
46416;DHT22;32620;51.704;7.822;2022-12-07T07:20:15;3.00;99.90
46416;DHT22;32620;51.704;7.822;2022-12-07T07:22:41;3.00;99.90
46416;DHT22;32620;51.704;7.822;2022-12-07T07:25:07;3.00;99.90
46416;DHT22;32620;51.704;7.822;2022-12-07T07:27:32;3.00;99.90
46416;DHT22;32620;51.704;7.822;2022-12-07T07:29:57;3.00;99.90
46416;DHT22;32620;51.704;7.822;2022-12-07T07:32:23;3.00;99.90
46416;DHT22;32620;51.704;7.822;2022-12-07T07:34:48;3.00;99.90
46416;DHT22;32620;51.704;7.822;2022-12-07T07:37:14;3.00;99.90
46416;DHT22;32620;51.704;7.822;2022-12-07T07:39:39;2.90;99.90
46416;DHT22;32620;51.704;7.822;2022-12-07T07:42:05;2.90;99.90
46416;DHT22;32620;51.704;7.822;2022-12-07T07:44:31;2.90;99.90
46416;DHT22;32620;51.704;7.822;2022-12-07T07:46:56;2.80;99.90
46416;DHT22;32620;51.704;7.822;2022-12-07T07:49:22;2.80;99.90
46416;DHT22;32620;51.704;7.822;2022-12-07T07:51:47;2.70;99.90
46416;DHT22;32620;51.704;7.822;2022-12-07T07:54:12;2.70;99.90
46416;DHT22;32620;51.704;7.822;2022-12-07T07:56:38;2.70;99.90
46416;DHT22;32620;51.704;7.822;2022-12-07T07:59:03;2.70;99.90
46416;DHT22;32620;51.704;7.822;2022-12-07T08:01:29;2.70;99.90
46416;DHT22;32620;51.704;7.822;2022-12-07T08:03:54;2.80;99.90
46416;DHT22;32620;51.704;7.822;2022-12-07T08:06:20;3.00;99.90
46416;DHT22;32620;51.704;7.822;2022-12-07T08:08:45;3.00;99.90
46416;DHT22;32620;51.704;7.822;2022-12-07T08:11:11;3.00;99.90
46416;DHT22;32620;51.704;7.822;2022-12-07T08:13:36;3.00;99.90
46416;DHT22;32620;51.704;7.822;2022-12-07T08:16:03;3.10;99.90
46416;DHT22;32620;51.704;7.822;2022-12-07T08:18:28;3.40;99.90
46416;DHT22;32620;51.704;7.822;2022-12-07T08:20:58;3.60;99.90
46416;DHT22;32620;51.704;7.822;2022-12-07T08:23:24;3.70;99.90
46416;DHT22;32620;51.704;7.822;2022-12-07T08:25:49;3.70;99.90
46416;DHT22;32620;51.704;7.822;2022-12-07T08:28:15;4.00;99.90
46416;DHT22;32620;51.704;7.822;2022-12-07T08:30:40;4.00;99.90
46416;DHT22;32620;51.704;7.822;2022-12-07T08:33:06;3.90;99.90
46416;DHT22;32620;51.704;7.822;2022-12-07T08:35:32;4.20;99.90
46416;DHT22;32620;51.704;7.822;2022-12-07T08:37:58;4.20;99.90
46416;DHT22;32620;51.704;7.822;2022-12-07T08:40:23;4.40;99.90
46416;DHT22;32620;51.704;7.822;2022-12-07T08:42:49;4.50;99.90
46416;DHT22;32620;51.704;7.822;2022-12-07T08:45:15;4.60;99.90
46416;DHT22;32620;51.704;7.822;2022-12-07T08:47:42;4.70;99.90
46416;DHT22;32620;51.704;7.822;2022-12-07T08:50:09;4.70;99.90
46416;DHT22;32620;51.704;7.822;2022-12-07T08:52:35;4.60;99.90
46416;DHT22;32620;51.704;7.822;2022-12-07T08:55:01;4.60;99.90
46416;DHT22;32620;51.704;7.822;2022-12-07T08:57:27;4.40;99.90
46416;DHT22;32620;51.704;7.822;2022-12-07T08:59:53;4.30;99.90
46416;DHT22;32620;51.704;7.822;2022-12-07T09:02:18;4.00;99.90
46416;DHT22;32620;51.704;7.822;2022-12-07T09:04:44;4.40;99.90
46416;DHT22;32620;51.704;7.822;2022-12-07T09:07:09;4.70;99.90
46416;DHT22;32620;51.704;7.822;2022-12-07T09:09:35;5.30;99.90
46416;DHT22;32620;51.704;7.822;2022-12-07T09:12:01;5.70;99.90
46416;DHT22;32620;51.704;7.822;2022-12-07T09:14:26;6.40;99.90
46416;DHT22;32620;51.704;7.822;2022-12-07T09:16:52;6.50;99.90
46416;DHT22;32620;51.704;7.822;2022-12-07T09:19:17;6.70;99.90
46416;DHT22;32620;51.704;7.822;2022-12-07T09:21:42;7.10;99.90
46416;DHT22;32620;51.704;7.822;2022-12-07T09:24:08;7.30;99.90
46416;DHT22;32620;51.704;7.822;2022-12-07T09:26:34;7.60;99.90
46416;DHT22;32620;51.704;7.822;2022-12-07T09:29:01;7.70;99.90
46416;DHT22;32620;51.704;7.822;2022-12-07T09:31:27;7.70;99.90
46416;DHT22;32620;51.704;7.822;2022-12-07T09:33:54;7.80;99.90
46416;DHT22;32620;51.704;7.822;2022-12-07T09:36:20;7.80;99.90
46416;DHT22;32620;51.704;7.822;2022-12-07T09:38:45;8.20;99.90
46416;DHT22;32620;51.704;7.822;2022-12-07T09:41:11;8.00;99.90
46416;DHT22;32620;51.704;7.822;2022-12-07T09:43:36;7.80;99.90
46416;DHT22;32620;51.704;7.822;2022-12-07T09:46:04;7.50;99.90
46416;DHT22;32620;51.704;7.822;2022-12-07T09:48:31;7.30;99.90
46416;DHT22;32620;51.704;7.822;2022-12-07T09:50:57;7.00;99.90
46416;DHT22;32620;51.704;7.822;2022-12-07T09:53:28;6.60;99.90
46416;DHT22;32620;51.704;7.822;2022-12-07T09:55:54;6.50;99.90
46416;DHT22;32620;51.704;7.822;2022-12-07T09:58:22;6.10;99.90
46416;DHT22;32620;51.704;7.822;2022-12-07T10:00:48;6.00;99.90
46416;DHT22;32620;51.704;7.822;2022-12-07T10:03:15;5.70;99.90
46416;DHT22;32620;51.704;7.822;2022-12-07T10:05:48;5.50;99.90
46416;DHT22;32620;51.704;7.822;2022-12-07T10:08:14;5.40;99.90
46416;DHT22;32620;51.704;7.822;2022-12-07T10:10:42;5.30;99.90
46416;DHT22;32620;51.704;7.822;2022-12-07T10:13:09;5.30;99.90
46416;DHT22;32620;51.704;7.822;2022-12-07T10:16:07;5.40;99.90
46416;DHT22;32620;51.704;7.822;2022-12-07T10:18:51;5.40;99.90
46416;DHT22;32620;51.704;7.822;2022-12-07T10:24:16;5.50;99.90
46416;DHT22;32620;51.704;7.822;2022-12-07T10:26:39;5.50;99.90
46416;DHT22;32620;51.704;7.822;2022-12-07T10:29:22;5.80;99.90
46416;DHT22;32620;51.704;7.822;2022-12-07T10:31:52;6.10;99.90
46416;DHT22;32620;51.704;7.822;2022-12-07T10:34:22;6.90;99.90
46416;DHT22;32620;51.704;7.822;2022-12-07T10:36:50;7.30;99.90
46416;DHT22;32620;51.704;7.822;2022-12-07T10:39:19;7.70;99.90
46416;DHT22;32620;51.704;7.822;2022-12-07T10:44:31;7.00;99.90
46416;DHT22;32620;51.704;7.822;2022-12-07T10:47:04;6.50;99.90
46416;DHT22;32620;51.704;7.822;2022-12-07T10:49:39;6.40;99.90
46416;DHT22;32620;51.704;7.822;2022-12-07T10:54:56;6.40;99.90
46416;DHT22;32620;51.704;7.822;2022-12-07T11:00:21;6.50;99.90
46416;DHT22;32620;51.704;7.822;2022-12-07T11:02:51;6.60;99.90
46416;DHT22;32620;51.704;7.822;2022-12-07T11:05:39;7.20;99.90
46416;DHT22;32620;51.704;7.822;2022-12-07T11:10:46;8.10;99.90
46416;DHT22;32620;51.704;7.822;2022-12-07T11:13:23;8.00;99.90
46416;DHT22;32620;51.704;7.822;2022-12-07T11:18:37;7.50;99.90
46416;DHT22;32620;51.704;7.822;2022-12-07T11:21:07;7.30;99.90
46416;DHT22;32620;51.704;7.822;2022-12-07T11:29:01;7.10;99.90
46416;DHT22;32620;51.704;7.822;2022-12-07T11:31:33;6.80;99.90
46416;DHT22;32620;51.704;7.822;2022-12-07T11:34:06;6.60;99.90
46416;DHT22;32620;51.704;7.822;2022-12-07T11:36:41;6.30;99.90
46416;DHT22;32620;51.704;7.822;2022-12-07T11:39:26;6.30;99.90
46416;DHT22;32620;51.704;7.822;2022-12-07T11:41:55;6.20;99.90
46416;DHT22;32620;51.704;7.822;2022-12-07T11:44:26;6.20;99.90
46416;DHT22;32620;51.704;7.822;2022-12-07T11:46:59;6.10;99.90
46416;DHT22;32620;51.704;7.822;2022-12-07T11:49:29;6.00;99.90
46416;DHT22;32620;51.704;7.822;2022-12-07T11:52:02;6.10;99.90
46416;DHT22;32620;51.704;7.822;2022-12-07T11:54:30;6.20;99.90
46416;DHT22;32620;51.704;7.822;2022-12-07T11:56:59;6.20;99.90
46416;DHT22;32620;51.704;7.822;2022-12-07T11:59:29;6.20;99.90
46416;DHT22;32620;51.704;7.822;2022-12-07T12:02:02;6.20;99.90
46416;DHT22;32620;51.704;7.822;2022-12-07T12:04:32;6.20;99.90
46416;DHT22;32620;51.704;7.822;2022-12-07T12:06:59;6.20;99.90
46416;DHT22;32620;51.704;7.822;2022-12-07T12:12:00;6.10;99.90
46416;DHT22;32620;51.704;7.822;2022-12-07T12:15:03;6.00;99.90
46416;DHT22;32620;51.704;7.822;2022-12-07T12:20:01;5.80;99.90
46416;DHT22;32620;51.704;7.822;2022-12-07T12:22:33;5.80;99.90
46416;DHT22;32620;51.704;7.822;2022-12-07T12:24:59;5.90;99.90
46416;DHT22;32620;51.704;7.822;2022-12-07T12:27:30;5.80;99.90
46416;DHT22;32620;51.704;7.822;2022-12-07T12:29:59;5.80;99.90
46416;DHT22;32620;51.704;7.822;2022-12-07T12:32:40;5.70;99.90
46416;DHT22;32620;51.704;7.822;2022-12-07T12:35:37;5.70;99.90
46416;DHT22;32620;51.704;7.822;2022-12-07T12:37:52;5.70;99.90
46416;DHT22;32620;51.704;7.822;2022-12-07T12:42:59;5.60;99.90
46416;DHT22;32620;51.704;7.822;2022-12-07T12:45:27;5.60;99.90
46416;DHT22;32620;51.704;7.822;2022-12-07T12:47:54;5.50;99.90
46416;DHT22;32620;51.704;7.822;2022-12-07T12:50:22;5.50;99.90
46416;DHT22;32620;51.704;7.822;2022-12-07T12:52:49;5.40;99.90
46416;DHT22;32620;51.704;7.822;2022-12-07T12:55:17;5.40;99.90
46416;DHT22;32620;51.704;7.822;2022-12-07T12:57:46;5.30;99.90
46416;DHT22;32620;51.704;7.822;2022-12-07T13:00:20;5.20;99.90
46416;DHT22;32620;51.704;7.822;2022-12-07T13:02:47;5.30;99.90
46416;DHT22;32620;51.704;7.822;2022-12-07T13:15:52;5.60;99.90
46416;DHT22;32620;51.704;7.822;2022-12-07T13:18:36;5.70;99.90
46416;DHT22;32620;51.704;7.822;2022-12-07T13:21:40;5.70;99.90
46416;DHT22;32620;51.704;7.822;2022-12-07T13:26:31;5.70;99.90
46416;DHT22;32620;51.704;7.822;2022-12-07T13:29:17;5.70;99.90
46416;DHT22;32620;51.704;7.822;2022-12-07T13:31:44;5.70;99.90
46416;DHT22;32620;51.704;7.822;2022-12-07T13:34:41;5.70;99.90
46416;DHT22;32620;51.704;7.822;2022-12-07T13:36:55;5.80;99.90
46416;DHT22;32620;51.704;7.822;2022-12-07T13:39:22;5.80;99.90
46416;DHT22;32620;51.704;7.822;2022-12-07T13:41:50;5.80;99.90
46416;DHT22;32620;51.704;7.822;2022-12-07T13:44:17;5.70;99.90
46416;DHT22;32620;51.704;7.822;2022-12-07T13:46:47;5.70;99.90
46416;DHT22;32620;51.704;7.822;2022-12-07T13:49:18;5.60;99.90
46416;DHT22;32620;51.704;7.822;2022-12-07T13:51:43;5.50;99.90
46416;DHT22;32620;51.704;7.822;2022-12-07T13:54:11;5.50;99.90
46416;DHT22;32620;51.704;7.822;2022-12-07T13:56:36;5.40;99.90
46416;DHT22;32620;51.704;7.822;2022-12-07T13:59:05;5.40;99.90
46416;DHT22;32620;51.704;7.822;2022-12-07T14:01:30;5.30;99.90
46416;DHT22;32620;51.704;7.822;2022-12-07T14:04:15;5.30;99.90
46416;DHT22;32620;51.704;7.822;2022-12-07T14:06:49;5.30;99.90
46416;DHT22;32620;51.704;7.822;2022-12-07T14:09:17;5.40;99.90
46416;DHT22;32620;51.704;7.822;2022-12-07T14:11:43;5.40;99.90
46416;DHT22;32620;51.704;7.822;2022-12-07T14:14:10;5.40;99.90
46416;DHT22;32620;51.704;7.822;2022-12-07T14:16:38;5.30;99.90
46416;DHT22;32620;51.704;7.822;2022-12-07T14:19:05;5.30;99.90
46416;DHT22;32620;51.704;7.822;2022-12-07T14:21:32;5.20;99.90
46416;DHT22;32620;51.704;7.822;2022-12-07T14:24:29;5.20;99.90
46416;DHT22;32620;51.704;7.822;2022-12-07T14:26:44;5.20;99.90
46416;DHT22;32620;51.704;7.822;2022-12-07T14:29:19;5.20;99.90
46416;DHT22;32620;51.704;7.822;2022-12-07T14:31:45;5.10;99.90
46416;DHT22;32620;51.704;7.822;2022-12-07T14:34:11;5.10;99.90
46416;DHT22;32620;51.704;7.822;2022-12-07T14:36:37;5.10;99.90
46416;DHT22;32620;51.704;7.822;2022-12-07T14:39:02;5.10;99.90
46416;DHT22;32620;51.704;7.822;2022-12-07T14:41:28;5.10;99.90
46416;DHT22;32620;51.704;7.822;2022-12-07T14:44:13;5.00;99.90
46416;DHT22;32620;51.704;7.822;2022-12-07T14:46:39;5.00;99.90
46416;DHT22;32620;51.704;7.822;2022-12-07T14:49:04;5.00;99.90
46416;DHT22;32620;51.704;7.822;2022-12-07T14:51:30;4.90;99.90
46416;DHT22;32620;51.704;7.822;2022-12-07T14:53:56;5.00;99.90
46416;DHT22;32620;51.704;7.822;2022-12-07T14:56:22;5.00;99.90
46416;DHT22;32620;51.704;7.822;2022-12-07T14:58:47;5.00;99.90
46416;DHT22;32620;51.704;7.822;2022-12-07T15:01:13;5.00;99.90
46416;DHT22;32620;51.704;7.822;2022-12-07T15:03:39;4.90;99.90
46416;DHT22;32620;51.704;7.822;2022-12-07T15:06:05;4.90;99.90
46416;DHT22;32620;51.704;7.822;2022-12-07T15:08:30;4.90;99.90
46416;DHT22;32620;51.704;7.822;2022-12-07T15:10:56;4.90;99.90
46416;DHT22;32620;51.704;7.822;2022-12-07T15:13:21;4.90;99.90
46416;DHT22;32620;51.704;7.822;2022-12-07T15:16:08;4.90;99.90
46416;DHT22;32620;51.704;7.822;2022-12-07T15:18:35;4.90;99.90
46416;DHT22;32620;51.704;7.822;2022-12-07T15:21:00;4.80;99.90
46416;DHT22;32620;51.704;7.822;2022-12-07T15:23:26;4.80;99.90
46416;DHT22;32620;51.704;7.822;2022-12-07T15:25:51;4.70;99.90
46416;DHT22;32620;51.704;7.822;2022-12-07T15:28:17;4.70;99.90
46416;DHT22;32620;51.704;7.822;2022-12-07T15:30:43;4.60;99.90
46416;DHT22;32620;51.704;7.822;2022-12-07T15:33:09;4.60;99.90
46416;DHT22;32620;51.704;7.822;2022-12-07T15:35:38;4.50;99.90
46416;DHT22;32620;51.704;7.822;2022-12-07T15:38:03;4.40;99.90
46416;DHT22;32620;51.704;7.822;2022-12-07T15:40:29;4.30;99.90
46416;DHT22;32620;51.704;7.822;2022-12-07T15:42:54;4.30;99.90
46416;DHT22;32620;51.704;7.822;2022-12-07T15:45:20;4.20;99.90
46416;DHT22;32620;51.704;7.822;2022-12-07T15:47:45;4.20;99.90
46416;DHT22;32620;51.704;7.822;2022-12-07T15:50:12;4.10;99.90
46416;DHT22;32620;51.704;7.822;2022-12-07T15:52:38;4.10;99.90
46416;DHT22;32620;51.704;7.822;2022-12-07T15:55:04;4.00;99.90
46416;DHT22;32620;51.704;7.822;2022-12-07T15:57:30;4.00;99.90
46416;DHT22;32620;51.704;7.822;2022-12-07T15:59:56;4.00;99.90
46416;DHT22;32620;51.704;7.822;2022-12-07T16:02:21;4.00;99.90
46416;DHT22;32620;51.704;7.822;2022-12-07T16:04:47;4.00;99.90
46416;DHT22;32620;51.704;7.822;2022-12-07T16:07:13;3.90;99.90
46416;DHT22;32620;51.704;7.822;2022-12-07T16:09:41;3.90;99.90
46416;DHT22;32620;51.704;7.822;2022-12-07T16:12:06;3.90;99.90
46416;DHT22;32620;51.704;7.822;2022-12-07T16:14:32;3.90;99.90
46416;DHT22;32620;51.704;7.822;2022-12-07T16:16:58;3.80;99.90
46416;DHT22;32620;51.704;7.822;2022-12-07T16:19:24;3.80;99.90
46416;DHT22;32620;51.704;7.822;2022-12-07T16:21:49;3.90;99.90
46416;DHT22;32620;51.704;7.822;2022-12-07T16:24:15;3.90;99.90
46416;DHT22;32620;51.704;7.822;2022-12-07T16:26:41;3.90;99.90
46416;DHT22;32620;51.704;7.822;2022-12-07T16:29:09;3.90;99.90
46416;DHT22;32620;51.704;7.822;2022-12-07T16:31:35;3.90;99.90
46416;DHT22;32620;51.704;7.822;2022-12-07T16:34:00;3.90;99.90
46416;DHT22;32620;51.704;7.822;2022-12-07T16:36:26;3.90;99.90
46416;DHT22;32620;51.704;7.822;2022-12-07T16:38:52;3.80;99.90
46416;DHT22;32620;51.704;7.822;2022-12-07T16:41:18;3.80;99.90
46416;DHT22;32620;51.704;7.822;2022-12-07T16:43:43;3.80;99.90